Webcam Flughafen St.Gallen-Altenrhein

Live-Bilder und Zeitraffer LSZR / ACH.

 

Live aus Altenrhein
LIVE
LSZR 281950Z AUTO 09004KT 8000 OVC013 02/01 Q1017
Zeitraffer heute
2020-11-28 00:14:38
LSZR 272250Z AUTO 09005KT 3900 BR OVC010 02/02 Q1020